sensor_id;sensor_type;location;lat;lon;timestamp;pressure;altitude;pressure_sealevel;temperature;humidity
8298;BME280;4187;42.778;23.242;2023-02-19T00:02:11;95573.72;;;6.93;87.11
8298;BME280;4187;42.778;23.242;2023-02-19T00:04:38;95574.66;;;6.81;88.16
8298;BME280;4187;42.778;23.242;2023-02-19T00:07:05;95573.81;;;6.81;88.48
8298;BME280;4187;42.778;23.242;2023-02-19T00:09:33;95574.13;;;6.76;90.10
8298;BME280;4187;42.778;23.242;2023-02-19T00:12:00;95575.06;;;6.64;91.29
8298;BME280;4187;42.778;23.242;2023-02-19T00:14:26;95560.13;;;6.53;91.98
8298;BME280;4187;42.778;23.242;2023-02-19T00:16:53;95574.06;;;6.54;92.85
8298;BME280;4187;42.778;23.242;2023-02-19T00:19:20;95563.59;;;6.54;93.11
8298;BME280;4187;42.778;23.242;2023-02-19T00:21:50;95560.00;;;6.55;93.08
8298;BME280;4187;42.778;23.242;2023-02-19T00:24:17;95558.66;;;6.49;94.17
8298;BME280;4187;42.778;23.242;2023-02-19T00:26:45;95557.38;;;6.55;94.31
8298;BME280;4187;42.778;23.242;2023-02-19T00:29:14;95559.50;;;6.50;94.88
8298;BME280;4187;42.778;23.242;2023-02-19T00:31:42;95553.53;;;6.48;95.66
8298;BME280;4187;42.778;23.242;2023-02-19T00:34:09;95545.78;;;6.46;95.88
8298;BME280;4187;42.778;23.242;2023-02-19T00:36:37;95540.78;;;6.54;95.52
8298;BME280;4187;42.778;23.242;2023-02-19T00:39:06;95521.03;;;6.50;94.55
8298;BME280;4187;42.778;23.242;2023-02-19T00:41:34;95532.47;;;6.60;94.94
8298;BME280;4187;42.778;23.242;2023-02-19T00:44:04;95529.81;;;6.49;95.26
8298;BME280;4187;42.778;23.242;2023-02-19T00:46:33;95522.34;;;6.56;95.36
8298;BME280;4187;42.778;23.242;2023-02-19T00:49:00;95519.81;;;6.54;95.31
8298;BME280;4187;42.778;23.242;2023-02-19T00:51:29;95518.75;;;6.57;94.60
8298;BME280;4187;42.778;23.242;2023-02-19T00:53:57;95533.19;;;6.62;94.04
8298;BME280;4187;42.778;23.242;2023-02-19T00:56:23;95529.50;;;6.65;93.87
8298;BME280;4187;42.778;23.242;2023-02-19T00:58:50;95529.63;;;6.63;93.79
8298;BME280;4187;42.778;23.242;2023-02-19T01:01:19;95527.41;;;6.70;93.30
8298;BME280;4187;42.778;23.242;2023-02-19T01:03:46;95524.06;;;6.79;94.52
8298;BME280;4187;42.778;23.242;2023-02-19T01:06:16;95531.84;;;6.81;95.50
8298;BME280;4187;42.778;23.242;2023-02-19T01:08:43;95532.81;;;6.91;95.83
8298;BME280;4187;42.778;23.242;2023-02-19T01:11:10;95529.81;;;6.95;95.94
8298;BME280;4187;42.778;23.242;2023-02-19T01:13:38;95452.41;;;6.56;95.66
8298;BME280;4187;42.778;23.242;2023-02-19T01:16:06;95517.66;;;6.94;96.35
8298;BME280;4187;42.778;23.242;2023-02-19T01:18:35;95531.75;;;7.04;95.17
8298;BME280;4187;42.778;23.242;2023-02-19T01:21:04;95529.97;;;7.05;93.64
8298;BME280;4187;42.778;23.242;2023-02-19T01:23:32;95528.50;;;7.01;93.24
8298;BME280;4187;42.778;23.242;2023-02-19T01:26:03;95532.22;;;6.98;93.00
8298;BME280;4187;42.778;23.242;2023-02-19T01:28:30;95535.81;;;6.97;93.67
8298;BME280;4187;42.778;23.242;2023-02-19T01:31:00;95540.44;;;6.94;94.45
8298;BME280;4187;42.778;23.242;2023-02-19T01:33:27;95543.66;;;6.86;95.12
8298;BME280;4187;42.778;23.242;2023-02-19T01:35:55;95542.19;;;6.82;95.07
8298;BME280;4187;42.778;23.242;2023-02-19T01:38:22;95547.53;;;6.70;95.31
8298;BME280;4187;42.778;23.242;2023-02-19T01:40:53;95563.47;;;6.55;95.30
8298;BME280;4187;42.778;23.242;2023-02-19T01:43:20;95560.75;;;6.33;97.35
8298;BME280;4187;42.778;23.242;2023-02-19T01:45:47;95557.78;;;6.14;98.67
8298;BME280;4187;42.778;23.242;2023-02-19T01:48:17;95552.72;;;6.00;100.00
8298;BME280;4187;42.778;23.242;2023-02-19T01:50:48;95554.81;;;5.95;100.00
8298;BME280;4187;42.778;23.242;2023-02-19T01:53:21;95555.78;;;5.94;100.00
8298;BME280;4187;42.778;23.242;2023-02-19T01:55:53;95560.06;;;5.95;99.75
8298;BME280;4187;42.778;23.242;2023-02-19T01:58:23;95569.03;;;6.03;99.04
8298;BME280;4187;42.778;23.242;2023-02-19T02:00:51;95575.84;;;6.06;98.05
8298;BME280;4187;42.778;23.242;2023-02-19T02:03:18;95574.78;;;6.09;96.91
8298;BME280;4187;42.778;23.242;2023-02-19T02:05:51;95573.84;;;6.10;97.25
8298;BME280;4187;42.778;23.242;2023-02-19T02:08:20;95573.72;;;6.11;96.95
8298;BME280;4187;42.778;23.242;2023-02-19T02:11:05;95564.66;;;6.04;97.32
8298;BME280;4187;42.778;23.242;2023-02-19T02:13:33;95537.03;;;5.87;97.21
8298;BME280;4187;42.778;23.242;2023-02-19T02:16:13;95566.56;;;5.89;98.37
8298;BME280;4187;42.778;23.242;2023-02-19T02:18:51;95565.44;;;5.81;99.83
8298;BME280;4187;42.778;23.242;2023-02-19T02:21:52;95564.94;;;5.63;100.00
8298;BME280;4187;42.778;23.242;2023-02-19T02:27:33;95552.72;;;5.51;100.00
8298;BME280;4187;42.778;23.242;2023-02-19T02:30:11;95545.31;;;5.45;100.00
8298;BME280;4187;42.778;23.242;2023-02-19T02:32:45;95544.03;;;5.38;100.00
8298;BME280;4187;42.778;23.242;2023-02-19T02:35:20;95572.91;;;5.62;100.00
8298;BME280;4187;42.778;23.242;2023-02-19T02:37:48;95553.91;;;5.34;100.00
8298;BME280;4187;42.778;23.242;2023-02-19T02:40:17;95578.38;;;5.46;100.00
8298;BME280;4187;42.778;23.242;2023-02-19T02:42:44;95582.78;;;5.33;100.00
8298;BME280;4187;42.778;23.242;2023-02-19T02:45:26;95582.47;;;5.25;100.00
8298;BME280;4187;42.778;23.242;2023-02-19T02:48:17;95565.00;;;5.13;100.00
8298;BME280;4187;42.778;23.242;2023-02-19T02:50:49;95574.63;;;5.25;100.00
8298;BME280;4187;42.778;23.242;2023-02-19T02:53:20;95577.66;;;5.31;100.00
8298;BME280;4187;42.778;23.242;2023-02-19T02:56:06;95578.81;;;5.40;100.00
8298;BME280;4187;42.778;23.242;2023-02-19T02:58:36;95578.91;;;5.38;100.00
8298;BME280;4187;42.778;23.242;2023-02-19T03:01:08;95580.88;;;5.48;100.00
8298;BME280;4187;42.778;23.242;2023-02-19T03:03:58;95584.44;;;5.47;100.00
8298;BME280;4187;42.778;23.242;2023-02-19T03:06:28;95580.69;;;5.51;100.00
8298;BME280;4187;42.778;23.242;2023-02-19T03:09:01;95584.03;;;5.53;100.00
8298;BME280;4187;42.778;23.242;2023-02-19T03:11:33;95584.44;;;5.59;100.00
8298;BME280;4187;42.778;23.242;2023-02-19T03:14:22;95579.50;;;5.67;100.00
8298;BME280;4187;42.778;23.242;2023-02-19T03:17:15;95584.81;;;5.78;100.00
8298;BME280;4187;42.778;23.242;2023-02-19T03:20:05;95593.19;;;5.83;100.00
8298;BME280;4187;42.778;23.242;2023-02-19T03:22:35;95551.75;;;5.65;100.00
8298;BME280;4187;42.778;23.242;2023-02-19T03:25:09;95589.41;;;6.00;100.00
8298;BME280;4187;42.778;23.242;2023-02-19T03:28:11;95581.75;;;5.84;100.00
8298;BME280;4187;42.778;23.242;2023-02-19T03:30:42;95603.59;;;6.09;100.00
8298;BME280;4187;42.778;23.242;2023-02-19T03:33:15;95608.19;;;6.18;100.00
8298;BME280;4187;42.778;23.242;2023-02-19T03:35:45;95616.78;;;6.20;100.00
8298;BME280;4187;42.778;23.242;2023-02-19T03:38:16;95606.75;;;6.14;100.00
8298;BME280;4187;42.778;23.242;2023-02-19T03:40:52;95616.06;;;6.18;100.00
8298;BME280;4187;42.778;23.242;2023-02-19T03:43:23;95622.56;;;6.12;100.00
8298;BME280;4187;42.778;23.242;2023-02-19T03:45:57;95634.31;;;6.07;100.00
8298;BME280;4187;42.778;23.242;2023-02-19T03:48:32;95639.50;;;6.19;100.00
8298;BME280;4187;42.778;23.242;2023-02-19T03:51:19;95633.69;;;6.16;99.29
8298;BME280;4187;42.778;23.242;2023-02-19T03:53:53;95647.94;;;6.12;99.54
8298;BME280;4187;42.778;23.242;2023-02-19T03:56:26;95644.25;;;6.14;100.00
8298;BME280;4187;42.778;23.242;2023-02-19T03:59:00;95629.88;;;6.20;99.18
8298;BME280;4187;42.778;23.242;2023-02-19T04:01:34;95643.28;;;6.28;97.84
8298;BME280;4187;42.778;23.242;2023-02-19T04:04:08;95647.66;;;6.27;97.07
8298;BME280;4187;42.778;23.242;2023-02-19T04:06:38;95645.78;;;6.29;96.44
8298;BME280;4187;42.778;23.242;2023-02-19T04:09:08;95647.66;;;6.27;95.67
8298;BME280;4187;42.778;23.242;2023-02-19T04:11:37;95592.84;;;6.00;95.90
8298;BME280;4187;42.778;23.242;2023-02-19T04:14:08;95651.53;;;6.34;96.24
8298;BME280;4187;42.778;23.242;2023-02-19T04:16:39;95659.25;;;6.48;96.14
8298;BME280;4187;42.778;23.242;2023-02-19T04:19:10;95653.22;;;6.59;95.72
8298;BME280;4187;42.778;23.242;2023-02-19T04:21:39;95647.06;;;6.71;94.61
8298;BME280;4187;42.778;23.242;2023-02-19T04:24:11;95644.94;;;6.76;95.00
8298;BME280;4187;42.778;23.242;2023-02-19T04:26:40;95641.53;;;6.87;95.27
8298;BME280;4187;42.778;23.242;2023-02-19T04:29:08;95608.22;;;6.76;94.79
8298;BME280;4187;42.778;23.242;2023-02-19T04:31:35;95643.88;;;7.02;94.41
8298;BME280;4187;42.778;23.242;2023-02-19T04:34:03;95627.28;;;7.02;93.49
8298;BME280;4187;42.778;23.242;2023-02-19T04:36:32;95648.53;;;7.10;92.91
8298;BME280;4187;42.778;23.242;2023-02-19T04:38:59;95651.28;;;7.19;92.93
8298;BME280;4187;42.778;23.242;2023-02-19T04:41:26;95648.66;;;7.19;92.90
8298;BME280;4187;42.778;23.242;2023-02-19T04:43:53;95654.75;;;7.20;92.78
8298;BME280;4187;42.778;23.242;2023-02-19T04:46:20;95655.47;;;7.22;92.99
8298;BME280;4187;42.778;23.242;2023-02-19T04:48:46;95640.53;;;7.11;91.86
8298;BME280;4187;42.778;23.242;2023-02-19T04:51:13;95655.16;;;7.27;92.10
8298;BME280;4187;42.778;23.242;2023-02-19T04:53:41;95655.16;;;7.27;91.98
8298;BME280;4187;42.778;23.242;2023-02-19T04:56:10;95653.59;;;7.24;91.98
8298;BME280;4187;42.778;23.242;2023-02-19T04:58:38;95658.94;;;7.22;91.97
8298;BME280;4187;42.778;23.242;2023-02-19T05:01:05;95619.41;;;7.02;90.53
8298;BME280;4187;42.778;23.242;2023-02-19T05:03:33;95670.50;;;7.20;90.91
8298;BME280;4187;42.778;23.242;2023-02-19T05:06:01;95658.91;;;7.11;92.31
8298;BME280;4187;42.778;23.242;2023-02-19T05:08:28;95666.78;;;7.11;92.67
8298;BME280;4187;42.778;23.242;2023-02-19T05:10:58;95634.41;;;6.89;92.66
8298;BME280;4187;42.778;23.242;2023-02-19T05:13:25;95657.53;;;6.95;93.90
8298;BME280;4187;42.778;23.242;2023-02-19T05:15:56;95667.00;;;6.97;94.79
8298;BME280;4187;42.778;23.242;2023-02-19T05:18:23;95667.84;;;7.09;94.09
8298;BME280;4187;42.778;23.242;2023-02-19T05:20:50;95648.06;;;7.05;95.03
8298;BME280;4187;42.778;23.242;2023-02-19T05:23:18;95670.41;;;7.21;94.54
8298;BME280;4187;42.778;23.242;2023-02-19T05:25:45;95655.88;;;7.29;91.85
8298;BME280;4187;42.778;23.242;2023-02-19T05:28:13;95664.69;;;7.28;91.25
8298;BME280;4187;42.778;23.242;2023-02-19T05:30:43;95660.13;;;7.18;91.71
8298;BME280;4187;42.778;23.242;2023-02-19T05:33:10;95662.19;;;7.26;92.11
8298;BME280;4187;42.778;23.242;2023-02-19T05:35:42;95662.06;;;7.28;92.23
8298;BME280;4187;42.778;23.242;2023-02-19T05:38:09;95621.72;;;7.17;91.21
8298;BME280;4187;42.778;23.242;2023-02-19T05:40:37;95670.22;;;7.47;90.48
8298;BME280;4187;42.778;23.242;2023-02-19T05:43:04;95641.66;;;7.31;89.77
8298;BME280;4187;42.778;23.242;2023-02-19T05:45:33;95671.28;;;7.44;89.28
8298;BME280;4187;42.778;23.242;2023-02-19T05:48:00;95646.78;;;7.21;88.67
8298;BME280;4187;42.778;23.242;2023-02-19T05:50:28;95676.50;;;7.33;89.59
8298;BME280;4187;42.778;23.242;2023-02-19T05:52:55;95675.44;;;7.36;89.95
8298;BME280;4187;42.778;23.242;2023-02-19T05:55:21;95669.47;;;7.34;90.66
8298;BME280;4187;42.778;23.242;2023-02-19T05:57:48;95690.16;;;7.49;90.66
8298;BME280;4187;42.778;23.242;2023-02-19T06:00:17;95690.88;;;7.62;90.63
8298;BME280;4187;42.778;23.242;2023-02-19T06:02:46;95703.91;;;7.64;91.11
8298;BME280;4187;42.778;23.242;2023-02-19T06:05:13;95684.69;;;7.63;91.73
8298;BME280;4187;42.778;23.242;2023-02-19T06:07:40;95717.09;;;7.97;90.99
8298;BME280;4187;42.778;23.242;2023-02-19T06:10:08;95690.69;;;7.99;90.33
8298;BME280;4187;42.778;23.242;2023-02-19T06:12:36;95681.88;;;8.00;90.32
8298;BME280;4187;42.778;23.242;2023-02-19T06:15:03;95720.97;;;8.37;90.37
8298;BME280;4187;42.778;23.242;2023-02-19T06:17:31;95704.09;;;8.29;88.09
8298;BME280;4187;42.778;23.242;2023-02-19T06:20:00;95724.63;;;9.63;87.52
8298;BME280;4187;42.778;23.242;2023-02-19T06:22:27;95731.09;;;10.92;76.86
8298;BME280;4187;42.778;23.242;2023-02-19T06:24:54;95734.50;;;11.70;69.07
8298;BME280;4187;42.778;23.242;2023-02-19T06:27:21;95735.94;;;12.11;64.77
8298;BME280;4187;42.778;23.242;2023-02-19T06:29:47;95732.09;;;12.42;60.88
8298;BME280;4187;42.778;23.242;2023-02-19T06:32:15;95729.31;;;12.44;58.42
8298;BME280;4187;42.778;23.242;2023-02-19T06:34:42;95730.97;;;12.45;59.02
8298;BME280;4187;42.778;23.242;2023-02-19T06:37:10;95729.59;;;12.41;58.26
8298;BME280;4187;42.778;23.242;2023-02-19T06:39:37;95735.31;;;12.36;58.44
8298;BME280;4187;42.778;23.242;2023-02-19T06:42:04;95742.91;;;12.22;58.97
8298;BME280;4187;42.778;23.242;2023-02-19T06:44:31;95736.56;;;12.42;59.85
8298;BME280;4187;42.778;23.242;2023-02-19T06:46:57;95714.94;;;12.74;57.89
8298;BME280;4187;42.778;23.242;2023-02-19T06:49:24;95731.13;;;13.07;56.55
8298;BME280;4187;42.778;23.242;2023-02-19T06:51:51;95735.22;;;13.19;54.85
8298;BME280;4187;42.778;23.242;2023-02-19T06:54:19;95746.16;;;13.34;54.64
8298;BME280;4187;42.778;23.242;2023-02-19T06:56:46;95748.94;;;13.50;54.09
8298;BME280;4187;42.778;23.242;2023-02-19T06:59:14;95753.63;;;13.74;52.94
8298;BME280;4187;42.778;23.242;2023-02-19T07:01:43;95744.06;;;13.99;52.23
8298;BME280;4187;42.778;23.242;2023-02-19T07:04:10;95747.38;;;14.18;51.50
8298;BME280;4187;42.778;23.242;2023-02-19T07:06:38;95751.31;;;14.14;51.37
8298;BME280;4187;42.778;23.242;2023-02-19T07:09:06;95749.69;;;13.96;51.60
8298;BME280;4187;42.778;23.242;2023-02-19T07:11:36;95748.03;;;13.77;51.18
8298;BME280;4187;42.778;23.242;2023-02-19T07:14:06;95747.50;;;13.73;52.62
8298;BME280;4187;42.778;23.242;2023-02-19T07:16:33;95713.59;;;13.59;52.71
8298;BME280;4187;42.778;23.242;2023-02-19T07:19:01;95741.22;;;13.92;52.14
8298;BME280;4187;42.778;23.242;2023-02-19T07:21:28;95717.09;;;13.86;51.42
8298;BME280;4187;42.778;23.242;2023-02-19T07:23:55;95731.34;;;14.02;50.76
8298;BME280;4187;42.778;23.242;2023-02-19T07:26:23;95731.59;;;14.17;51.55
8298;BME280;4187;42.778;23.242;2023-02-19T07:28:51;95734.16;;;14.26;50.55
8298;BME280;4187;42.778;23.242;2023-02-19T07:31:21;95741.94;;;14.46;49.67
8298;BME280;4187;42.778;23.242;2023-02-19T07:33:48;95739.72;;;14.67;48.93
8298;BME280;4187;42.778;23.242;2023-02-19T07:36:17;95730.38;;;14.88;48.67
8298;BME280;4187;42.778;23.242;2023-02-19T07:38:44;95734.38;;;15.01;47.92
8298;BME280;4187;42.778;23.242;2023-02-19T07:41:11;95725.66;;;15.16;47.83
8298;BME280;4187;42.778;23.242;2023-02-19T07:43:38;95720.72;;;15.37;46.76
8298;BME280;4187;42.778;23.242;2023-02-19T07:46:07;95716.94;;;15.48;45.36
8298;BME280;4187;42.778;23.242;2023-02-19T07:48:36;95722.28;;;15.56;45.49
8298;BME280;4187;42.778;23.242;2023-02-19T07:51:04;95727.28;;;15.67;45.02
8298;BME280;4187;42.778;23.242;2023-02-19T07:53:32;95713.13;;;15.75;44.79
8298;BME280;4187;42.778;23.242;2023-02-19T07:56:00;95722.28;;;15.88;44.43
8298;BME280;4187;42.778;23.242;2023-02-19T07:58:27;95719.78;;;16.11;43.76
8298;BME280;4187;42.778;23.242;2023-02-19T08:00:55;95708.44;;;16.17;43.80
8298;BME280;4187;42.778;23.242;2023-02-19T08:03:23;95720.56;;;16.36;42.70
8298;BME280;4187;42.778;23.242;2023-02-19T08:05:49;95720.41;;;16.37;42.33
8298;BME280;4187;42.778;23.242;2023-02-19T08:08:18;95710.06;;;16.42;42.46
8298;BME280;4187;42.778;23.242;2023-02-19T08:10:45;95722.09;;;16.54;42.37
8298;BME280;4187;42.778;23.242;2023-02-19T08:13:29;95732.00;;;16.68;42.20
8298;BME280;4187;42.778;23.242;2023-02-19T08:16:10;95722.34;;;16.76;42.07
8298;BME280;4187;42.778;23.242;2023-02-19T08:18:38;95725.47;;;16.79;41.46
8298;BME280;4187;42.778;23.242;2023-02-19T08:21:05;95713.50;;;16.75;41.61
8298;BME280;4187;42.778;23.242;2023-02-19T08:23:32;95710.59;;;16.93;41.73
8298;BME280;4187;42.778;23.242;2023-02-19T08:25:59;95719.06;;;17.04;41.10
8298;BME280;4187;42.778;23.242;2023-02-19T08:28:27;95720.44;;;17.00;41.35
8298;BME280;4187;42.778;23.242;2023-02-19T08:31:00;95722.03;;;17.09;41.03
8298;BME280;4187;42.778;23.242;2023-02-19T08:33:27;95708.31;;;17.20;40.84
8298;BME280;4187;42.778;23.242;2023-02-19T08:36:00;95712.72;;;17.36;40.91
8298;BME280;4187;42.778;23.242;2023-02-19T08:38:29;95695.81;;;17.52;41.30
8298;BME280;4187;42.778;23.242;2023-02-19T08:40:56;95707.13;;;17.76;39.78
8298;BME280;4187;42.778;23.242;2023-02-19T08:43:22;95711.47;;;17.77;39.90
8298;BME280;4187;42.778;23.242;2023-02-19T08:45:51;95666.34;;;17.68;39.88
8298;BME280;4187;42.778;23.242;2023-02-19T08:48:18;95677.19;;;17.89;39.44
8298;BME280;4187;42.778;23.242;2023-02-19T08:50:52;95696.03;;;18.10;39.29
8298;BME280;4187;42.778;23.242;2023-02-19T08:53:21;95676.50;;;18.10;39.13
8298;BME280;4187;42.778;23.242;2023-02-19T08:55:47;95697.00;;;18.46;39.07
8298;BME280;4187;42.778;23.242;2023-02-19T08:58:14;95696.94;;;18.69;38.93
8298;BME280;4187;42.778;23.242;2023-02-19T09:00:41;95689.38;;;18.87;37.52
8298;BME280;4187;42.778;23.242;2023-02-19T09:03:08;95687.06;;;18.99;38.02
8298;BME280;4187;42.778;23.242;2023-02-19T09:05:36;95688.28;;;19.11;37.45
8298;BME280;4187;42.778;23.242;2023-02-19T09:08:03;95677.63;;;19.18;37.81
8298;BME280;4187;42.778;23.242;2023-02-19T09:10:32;95668.66;;;19.40;36.99
8298;BME280;4187;42.778;23.242;2023-02-19T09:12:58;95640.69;;;19.28;37.28
8298;BME280;4187;42.778;23.242;2023-02-19T09:15:26;95643.69;;;19.54;37.12
8298;BME280;4187;42.778;23.242;2023-02-19T09:17:54;95649.34;;;19.87;36.55
8298;BME280;4187;42.778;23.242;2023-02-19T09:20:21;95667.63;;;20.04;38.00
8298;BME280;4187;42.778;23.242;2023-02-19T09:22:47;95673.19;;;20.24;39.20
8298;BME280;4187;42.778;23.242;2023-02-19T09:25:15;95669.09;;;20.28;38.84
8298;BME280;4187;42.778;23.242;2023-02-19T09:27:43;95662.72;;;20.29;37.40
8298;BME280;4187;42.778;23.242;2023-02-19T09:30:10;95656.44;;;20.43;37.29
8298;BME280;4187;42.778;23.242;2023-02-19T09:32:37;95657.09;;;20.52;36.79
8298;BME280;4187;42.778;23.242;2023-02-19T09:35:04;95664.25;;;20.45;35.35
8298;BME280;4187;42.778;23.242;2023-02-19T09:37:31;95664.66;;;20.42;35.64
8298;BME280;4187;42.778;23.242;2023-02-19T09:39:58;95665.44;;;20.36;35.87
8298;BME280;4187;42.778;23.242;2023-02-19T09:42:27;95668.91;;;20.64;36.51
8298;BME280;4187;42.778;23.242;2023-02-19T09:44:58;95656.38;;;20.71;35.98
8298;BME280;4187;42.778;23.242;2023-02-19T09:47:28;95656.84;;;20.81;37.42
8298;BME280;4187;42.778;23.242;2023-02-19T09:49:58;95650.28;;;20.90;34.85
8298;BME280;4187;42.778;23.242;2023-02-19T09:52:30;95640.41;;;20.97;35.43
8298;BME280;4187;42.778;23.242;2023-02-19T09:55:00;95643.94;;;20.57;35.75
8298;BME280;4187;42.778;23.242;2023-02-19T09:57:30;95633.09;;;20.78;35.73
8298;BME280;4187;42.778;23.242;2023-02-19T10:00:03;95627.84;;;21.04;35.74
8298;BME280;4187;42.778;23.242;2023-02-19T10:02:31;95624.59;;;21.09;35.22
8298;BME280;4187;42.778;23.242;2023-02-19T10:04:58;95622.94;;;21.14;35.21
8298;BME280;4187;42.778;23.242;2023-02-19T10:07:32;95614.28;;;21.12;35.58
8298;BME280;4187;42.778;23.242;2023-02-19T10:10:09;95612.88;;;21.23;35.35
8298;BME280;4187;42.778;23.242;2023-02-19T10:12:45;95606.72;;;21.35;35.75
8298;BME280;4187;42.778;23.242;2023-02-19T10:15:17;95601.38;;;21.55;34.72
8298;BME280;4187;42.778;23.242;2023-02-19T10:17:46;95604.72;;;21.70;34.55
8298;BME280;4187;42.778;23.242;2023-02-19T10:20:14;95592.97;;;21.91;34.10
8298;BME280;4187;42.778;23.242;2023-02-19T10:22:42;95587.56;;;22.04;34.03
8298;BME280;4187;42.778;23.242;2023-02-19T10:25:11;95578.06;;;22.15;33.77
8298;BME280;4187;42.778;23.242;2023-02-19T10:27:39;95575.38;;;22.08;34.42
8298;BME280;4187;42.778;23.242;2023-02-19T10:30:14;95577.25;;;22.01;33.56
8298;BME280;4187;42.778;23.242;2023-02-19T10:32:58;95567.53;;;22.00;33.52
8298;BME280;4187;42.778;23.242;2023-02-19T10:35:25;95565.88;;;21.92;35.40
8298;BME280;4187;42.778;23.242;2023-02-19T10:37:52;95558.41;;;22.14;36.52
8298;BME280;4187;42.778;23.242;2023-02-19T10:40:21;95558.19;;;22.29;34.34
8298;BME280;4187;42.778;23.242;2023-02-19T10:42:51;95551.13;;;22.41;33.47
8298;BME280;4187;42.778;23.242;2023-02-19T10:45:21;95540.72;;;22.57;32.42
8298;BME280;4187;42.778;23.242;2023-02-19T10:47:50;95517.97;;;22.60;32.48
8298;BME280;4187;42.778;23.242;2023-02-19T10:50:24;95530.31;;;22.81;33.22
8298;BME280;4187;42.778;23.242;2023-02-19T10:52:52;95531.09;;;22.88;32.90
8298;BME280;4187;42.778;23.242;2023-02-19T10:55:26;95504.16;;;22.94;33.57
8298;BME280;4187;42.778;23.242;2023-02-19T10:57:54;95507.53;;;23.21;32.13
8298;BME280;4187;42.778;23.242;2023-02-19T11:00:22;95500.22;;;23.28;32.04
8298;BME280;4187;42.778;23.242;2023-02-19T11:03:12;95500.06;;;23.23;31.58
8298;BME280;4187;42.778;23.242;2023-02-19T11:05:53;95499.28;;;23.16;31.66
8298;BME280;4187;42.778;23.242;2023-02-19T11:08:23;95494.09;;;23.14;31.23
8298;BME280;4187;42.778;23.242;2023-02-19T11:10:50;95490.34;;;23.22;30.11
8298;BME280;4187;42.778;23.242;2023-02-19T11:13:25;95491.19;;;23.16;29.83
8298;BME280;4187;42.778;23.242;2023-02-19T11:15:56;95484.97;;;23.22;29.55
8298;BME280;4187;42.778;23.242;2023-02-19T11:18:26;95473.97;;;22.92;29.06
8298;BME280;4187;42.778;23.242;2023-02-19T11:20:55;95484.69;;;22.54;29.37
8298;BME280;4187;42.778;23.242;2023-02-19T11:23:25;95473.53;;;22.44;29.73
8298;BME280;4187;42.778;23.242;2023-02-19T11:25:55;95462.53;;;22.52;29.94
8298;BME280;4187;42.778;23.242;2023-02-19T11:28:32;95447.81;;;22.61;29.61
8298;BME280;4187;42.778;23.242;2023-02-19T11:31:22;95431.34;;;22.83;29.96
8298;BME280;4187;42.778;23.242;2023-02-19T11:33:55;95441.69;;;22.86;29.28
8298;BME280;4187;42.778;23.242;2023-02-19T11:36:34;95442.44;;;22.99;28.99
8298;BME280;4187;42.778;23.242;2023-02-19T11:39:23;95439.97;;;22.98;29.34
8298;BME280;4187;42.778;23.242;2023-02-19T11:42:04;95423.47;;;23.19;27.99
8298;BME280;4187;42.778;23.242;2023-02-19T11:44:44;95392.72;;;23.02;28.36
8298;BME280;4187;42.778;23.242;2023-02-19T11:47:44;95421.34;;;23.21;28.25
8298;BME280;4187;42.778;23.242;2023-02-19T11:50:21;95415.97;;;23.21;28.29
8298;BME280;4187;42.778;23.242;2023-02-19T11:53:02;95414.59;;;23.43;28.70
8298;BME280;4187;42.778;23.242;2023-02-19T11:55:40;95401.75;;;23.63;28.01
8298;BME280;4187;42.778;23.242;2023-02-19T11:58:23;95384.88;;;23.50;27.79
8298;BME280;4187;42.778;23.242;2023-02-19T12:01:00;95396.69;;;23.73;27.76
8298;BME280;4187;42.778;23.242;2023-02-19T12:04:04;95397.81;;;23.84;27.79
8298;BME280;4187;42.778;23.242;2023-02-19T12:06:44;95385.00;;;23.98;27.39
8298;BME280;4187;42.778;23.242;2023-02-19T12:09:23;95381.03;;;24.00;27.57
8298;BME280;4187;42.778;23.242;2023-02-19T12:12:08;95375.13;;;24.10;27.40
8298;BME280;4187;42.778;23.242;2023-02-19T12:15:01;95385.91;;;23.92;26.20
8298;BME280;4187;42.778;23.242;2023-02-19T12:17:54;95346.09;;;23.08;27.37
8298;BME280;4187;42.778;23.242;2023-02-19T12:20:33;95353.59;;;23.24;27.81
8298;BME280;4187;42.778;23.242;2023-02-19T12:23:30;95352.19;;;23.64;27.95
8298;BME280;4187;42.778;23.242;2023-02-19T12:26:05;95346.19;;;23.99;27.35
8298;BME280;4187;42.778;23.242;2023-02-19T12:28:54;95339.78;;;24.18;27.25
8298;BME280;4187;42.778;23.242;2023-02-19T12:31:48;95328.22;;;24.29;27.24
8298;BME280;4187;42.778;23.242;2023-02-19T12:34:57;95339.28;;;24.39;26.50
8298;BME280;4187;42.778;23.242;2023-02-19T12:37:34;95327.13;;;24.48;26.54
8298;BME280;4187;42.778;23.242;2023-02-19T12:40:19;95320.31;;;24.46;26.07
8298;BME280;4187;42.778;23.242;2023-02-19T12:43:00;95307.16;;;24.37;26.59
8298;BME280;4187;42.778;23.242;2023-02-19T12:45:31;95308.69;;;24.45;26.66
8298;BME280;4187;42.778;23.242;2023-02-19T12:48:05;95299.09;;;24.49;26.54
8298;BME280;4187;42.778;23.242;2023-02-19T12:50:36;95294.88;;;24.53;26.03
8298;BME280;4187;42.778;23.242;2023-02-19T12:53:14;95290.06;;;24.55;26.26
8298;BME280;4187;42.778;23.242;2023-02-19T12:55:45;95283.75;;;24.61;26.22
8298;BME280;4187;42.778;23.242;2023-02-19T12:58:17;95279.56;;;24.77;26.05
8298;BME280;4187;42.778;23.242;2023-02-19T13:00:48;95277.41;;;25.09;25.64
8298;BME280;4187;42.778;23.242;2023-02-19T13:03:21;95275.38;;;24.81;26.01
8298;BME280;4187;42.778;23.242;2023-02-19T13:05:52;95269.81;;;24.76;26.12
8298;BME280;4187;42.778;23.242;2023-02-19T13:08:23;95243.88;;;24.75;25.64
8298;BME280;4187;42.778;23.242;2023-02-19T13:10:58;95258.94;;;25.17;25.37
8298;BME280;4187;42.778;23.242;2023-02-19T13:13:29;95253.44;;;25.47;24.91
8298;BME280;4187;42.778;23.242;2023-02-19T13:16:01;95249.03;;;25.69;25.68
8298;BME280;4187;42.778;23.242;2023-02-19T13:18:33;95228.91;;;25.77;25.97
8298;BME280;4187;42.778;23.242;2023-02-19T13:21:04;95214.84;;;25.63;25.54
8298;BME280;4187;42.778;23.242;2023-02-19T13:23:33;95230.16;;;25.46;24.32
8298;BME280;4187;42.778;23.242;2023-02-19T13:26:31;95225.03;;;24.86;25.23
8298;BME280;4187;42.778;23.242;2023-02-19T13:29:14;95223.34;;;24.74;24.69
8298;BME280;4187;42.778;23.242;2023-02-19T13:31:57;95220.31;;;24.82;24.66
8298;BME280;4187;42.778;23.242;2023-02-19T13:34:41;95217.63;;;24.82;24.98
8298;BME280;4187;42.778;23.242;2023-02-19T13:37:12;95209.78;;;24.92;24.31
8298;BME280;4187;42.778;23.242;2023-02-19T13:39:45;95217.34;;;24.72;24.73
8298;BME280;4187;42.778;23.242;2023-02-19T13:42:23;95204.44;;;24.51;25.25